Latest Weather Observations for Casino

IDN60801

Issued at 9:02 pm EST Sunday 24 May 2015 (issued every 30 minutes, with the page automatically refreshed every 10 minutes)

About weather observations | Map of weather stations | Latest weather observations for NSW | Other Formats
Station Details ID: 058208 Name: CASINO AIRPORT AWS Lat: -28.88 Lon: 153.06 Height: 20.9 m
Data from the previous 72 hours. | See also: Recent months at Casino
Date/Time
EST
Temp
°C
App
Temp
°C
Dew
Point
Rel
Hum
%
Delta-T
°C
Wind Press
QNH
hPa
Press
MSL
hPa
Rain
since 9 am
mm
Dir
 
Spd
km/h
Gust
km/h
Spd
kts
Gust
kts
24/09:00pm 14.3 13.8 12.2 87 1.1 SW 6 7 3 4 1031.0 1031.0 0.0
24/08:30pm 13.0 12.2 11.2 89 0.9 SW 6 7 3 4 1030.9 1030.9 0.0
24/08:00pm 12.7 11.9 10.9 89 0.9 WSW 6 7 3 4 1030.7 1030.7 0.0
24/07:30pm 12.7 12.5 10.4 86 1.2 W 2 7 1 4 1030.6 1030.6 0.0
24/07:00pm 13.6 12.6 10.9 84 1.4 NNW 7 7 4 4 1030.1 1030.1 0.0
24/06:30pm 13.4 13.1 10.0 80 1.7 SSW 2 6 1 3 1029.9 1029.9 0.0
24/06:00pm 15.0 15.4 11.2 78 2.0 CALM 0 0 0 0 1029.9 1029.9 0.0
24/05:30pm 16.0 15.4 11.6 75 2.4 WSW 6 6 3 3 1029.9 1029.9 0.0
24/05:00pm 17.5 17.7 11.8 69 3.1 S 2 7 1 4 1029.4 1029.4 0.0
24/04:30pm 18.4 16.3 11.2 63 3.9 S 13 17 7 9 1028.9 1028.9 0.0
24/04:00pm 19.8 18.3 11.8 60 4.4 S 11 17 6 9 1028.8 1028.8 0.0
24/03:30pm 19.8 17.1 11.6 59 4.5 S 17 24 9 13 1028.5 1028.5 0.0
24/03:00pm 20.5 18.6 11.7 57 4.9 SSE 13 20 7 11 1028.4 1028.4 0.0
24/02:30pm 19.7 17.7 11.5 59 4.5 S 13 19 7 10 1028.5 1028.5 0.0
24/02:00pm 20.9 17.5 10.7 52 5.5 S 19 28 10 15 1028.3 1028.3 0.0
24/01:30pm 21.2 18.4 11.2 53 5.5 S 17 28 9 15 1028.3 1028.3 0.0
24/01:00pm 20.8 18.4 11.4 55 5.2 SE 15 24 8 13 1028.1 1028.0 0.0
24/12:30pm 20.9 18.8 11.0 53 5.4 SSE 13 20 7 11 1028.3 1028.3 0.0
24/12:00pm 20.8 17.2 10.6 52 5.5 S 20 32 11 17 1028.7 1028.7 0.0
24/11:30am 20.5 16.9 10.6 53 5.4 S 20 30 11 16 1029.0 1029.0 0.0
24/11:00am 20.2 16.5 9.5 50 5.7 S 19 28 10 15 1029.7 1029.7 0.0
24/10:30am 20.0 17.1 11.0 56 4.9 S 17 24 9 13 1029.9 1029.9 0.0
24/10:00am 19.2 16.8 10.2 56 4.8 S 13 20 7 11 1030.0 1030.0 0.0
24/09:30am 17.5 16.5 11.1 66 3.5 W 7 11 4 6 1030.1 1030.1 0.0
24/09:00am 15.8 14.7 10.8 72 2.6 W 7 11 4 6 1030.2 1030.2 0.0
24/08:30am 14.7 13.7 10.9 78 2.0 NW 7 11 4 6 1030.0 1030.0 0.0
24/08:00am 13.3 13.8 11.5 89 0.9 CALM 0 0 0 0 1029.6 1029.6 0.0
24/07:30am 12.1 11.4 10.0 87 1.1 NW 4 9 2 5 1029.1 1029.1 0.0
24/07:00am 11.3 10.0 9.9 91 0.7 NW 7 9 4 5 1028.8 1028.8 0.0
24/06:30am 10.9 9.1 9.5 91 0.7 WNW 9 11 5 6 1028.2 1028.2 0.0
24/06:00am 10.6 9.9 8.5 87 1.0 NW 2 6 1 3 1027.9 1027.8 0.0
24/05:30am 11.4 10.2 9.7 89 0.9 NW 6 7 3 4 1027.8 1027.7 0.0
24/05:00am 11.7 10.7 10.4 92 0.7 WNW 6 7 3 4 1027.6 1027.5 0.0
24/04:30am 10.3 8.7 8.2 87 1.0 NW 6 7 3 4 1027.3 1027.2 0.0
24/04:00am 10.7 9.9 8.1 84 1.3 N 2 7 1 4 1027.1 1027.0 0.0
24/03:30am 12.2 10.9 7.7 74 2.2 WSW 4 7 2 4 1026.8 1026.7 0.0
24/03:00am 13.5 11.9 8.8 73 2.4 SW 7 9 4 5 1026.9 1026.8 0.0
24/02:30am 14.7 13.0 9.7 72 2.6 SSW 9 13 5 7 1026.9 1026.8 0.0
24/02:00am 14.2 12.1 9.6 74 2.4 SSW 11 15 6 8 1026.9 1026.8 0.0
24/01:30am 14.9 12.9 10.3 74 2.4 SSW 11 17 6 9 1026.9 1026.8 0.0
24/01:00am 14.8 13.7 10.8 77 2.1 SW 7 11 4 6 1026.9 1026.8 0.0
24/12:30am 15.0 14.4 11.8 81 1.7 WSW 6 7 3 4 1026.7 1026.6 0.0
24/12:00am 14.8 14.4 12.3 85 1.4 SW 6 6 3 3 1026.8 1026.7 0.0
 
Date/Time
EST
Temp
°C
App
Temp
°C
Dew
Point
Rel
Hum
%
Delta-T
°C
Wind Press
QNH
hPa
Press
MSL
hPa
Rain
since 9 am
mm
Dir
 
Spd
km/h
Gust
km/h
Spd
kts
Gust
kts
23/11:30pm 15.0 14.4 12.3 84 1.5 WNW 7 9 4 5 1026.9 1026.8 0.0
23/11:00pm 14.9 14.5 12.4 85 1.4 N 6 7 3 4 1027.0 1026.9 0.0
23/10:30pm 14.9 14.4 11.9 82 1.6 ESE 6 6 3 3 1027.2 1027.1 0.0
23/10:00pm 15.4 15.6 12.0 80 1.8 S 2 6 1 3 1027.2 1027.1 0.0
23/09:30pm 15.5 14.4 11.9 79 2.0 SSW 9 17 5 9 1027.2 1027.1 0.0
23/09:00pm 15.2 15.8 12.0 81 1.7 CALM 0 0 0 0 1027.1 1027.0 0.0
23/08:30pm 15.6 15.8 12.0 79 2.0 ESE 2 6 1 3 1027.0 1026.9 0.0
23/08:00pm 15.7 15.9 11.9 78 2.1 SSW 2 7 1 4 1026.8 1026.7 0.0
23/07:30pm 15.4 15.3 12.2 81 1.7 SE 4 13 2 7 1026.5 1026.4 0.0
23/07:00pm 15.3 16.1 12.4 83 1.6 CALM 0 0 0 0 1026.3 1026.2 0.0
23/06:30pm 15.0 15.6 12.0 82 1.6 CALM 0 0 0 0 1025.9 1025.8 0.0
23/06:00pm 15.1 15.8 12.1 82 1.6 CALM 0 0 0 0 1025.6 1025.5 0.0
23/05:30pm 14.2 14.4 10.4 78 2.0 CALM 0 0 0 0 1025.2 1025.1 0.0
23/05:00pm 16.3 15.3 10.4 68 3.1 SSE 6 7 3 4 1025.2 1025.1 0.0
23/04:30pm 18.0 16.5 10.6 62 4.0 S 9 13 5 7 1025.0 1024.9 0.0
23/04:00pm 18.7 16.9 10.8 60 4.3 SSE 11 17 6 9 1025.0 1024.9 0.0
23/03:30pm 18.4 15.8 10.7 61 4.2 S 15 22 8 12 1024.9 1024.8 0.0
23/03:00pm 19.7 16.5 10.1 54 5.1 S 17 26 9 14 1024.6 1024.5 0.0
23/02:30pm 19.7 17.2 11.2 58 4.7 SSE 15 24 8 13 1024.6 1024.5 0.0
23/02:00pm 18.5 15.1 11.3 63 3.9 S 20 33 11 18 1024.5 1024.4 0.0
23/01:30pm 19.4 16.1 9.6 53 5.2 SSE 17 24 9 13 1024.2 1024.1 0.0
23/01:00pm 20.4 16.3 8.7 47 6.1 SSE 20 33 11 18 1024.2 1024.1 0.0
23/12:30pm 19.5 15.1 8.8 50 5.6 S 22 35 12 19 1024.6 1024.5 0.0
23/12:00pm 19.8 16.1 10.0 53 5.2 S 20 32 11 17 1024.7 1024.6 0.0
23/11:30am 19.9 16.9 10.6 55 5.0 S 17 26 9 14 1025.0 1024.9 0.0
23/11:00am 18.7 14.9 9.8 56 4.7 S 20 33 11 18 1025.3 1025.2 0.0
23/10:30am 18.4 15.4 10.7 61 4.2 S 17 30 9 16 1025.5 1025.4 0.0
23/10:00am 17.5 12.6 10.1 62 3.9 S 26 43 14 23 1025.6 1025.5 0.0
23/09:30am 17.0 13.2 9.9 63 3.7 SSW 20 37 11 20 1025.3 1025.2 0.0
23/09:00am 17.0 13.8 9.9 63 3.7 SSW 17 30 9 16 1025.1 1025.0 0.0
23/08:30am 15.7 14.1 10.2 70 2.9 SSW 9 15 5 8 1024.8 1024.7 0.0
23/08:00am 14.9 13.1 9.5 70 2.8 SSW 9 17 5 9 1024.5 1024.4 0.0
23/07:30am 14.4 12.3 9.6 73 2.5 SSW 11 15 6 8 1024.2 1024.1 0.0
23/07:00am 13.2 11.5 8.5 73 2.3 WSW 7 11 4 6 1023.7 1023.6 0.0
23/06:30am 12.0 10.2 7.9 76 2.0 SW 7 9 4 5 1023.0 1022.9 0.0
23/06:00am 13.0 11.0 8.5 74 2.2 SW 9 13 5 7 1022.7 1022.6 0.0
23/05:30am 12.0 10.3 8.5 79 1.7 WSW 7 11 4 6 1022.3 1022.2 0.0
23/05:00am 11.6 9.9 7.7 77 1.9 WSW 6 7 3 4 1021.8 1021.7 0.0
23/04:30am 11.2 9.2 7.3 77 1.9 SSW 7 9 4 5 1021.6 1021.5 0.0
23/04:00am 12.5 10.9 8.0 74 2.2 W 6 9 3 5 1021.2 1021.1 0.0
23/03:30am 13.2 11.4 8.1 71 2.5 S 7 11 4 6 1021.1 1021.0 0.0
23/03:00am 13.3 11.5 8.0 70 2.6 SSW 7 11 4 6 1020.9 1020.8 0.0
23/02:30am 14.2 11.8 8.6 69 2.8 SW 11 15 6 8 1020.8 1020.7 0.0
23/02:00am 14.4 12.1 9.0 70 2.7 SSW 11 15 6 8 1020.9 1020.8 0.0
23/01:30am 14.5 12.2 8.9 69 2.8 SSW 11 15 6 8 1020.8 1020.7 0.0
23/01:00am 14.4 12.1 9.0 70 2.7 SSW 11 15 6 8 1020.9 1020.8 0.0
23/12:30am 14.5 12.7 9.3 71 2.7 SSW 9 15 5 8 1020.4 1020.3 0.0
23/12:00am 14.5 12.7 9.5 72 2.6 SW 9 15 5 8 1020.3 1020.2 0.0
 
Date/Time
EST
Temp
°C
App
Temp
°C
Dew
Point
Rel
Hum
%
Delta-T
°C
Wind Press
QNH
hPa
Press
MSL
hPa
Rain
since 9 am
mm
Dir
 
Spd
km/h
Gust
km/h
Spd
kts
Gust
kts
22/11:30pm 14.2 12.7 9.2 72 2.6 SW 7 15 4 8 1020.1 1020.0 0.0
22/11:00pm 14.0 12.4 8.8 71 2.6 SW 7 9 4 5 1019.9 1019.8 0.0
22/10:30pm 13.4 11.8 8.7 73 2.4 SW 7 9 4 5 1019.8 1019.7 0.0
22/10:00pm 12.3 10.8 9.0 80 1.6 WNW 7 11 4 6 1019.7 1019.6 0.0
22/09:30pm 11.4 11.0 8.1 80 1.6 CALM 0 0 0 0 1019.2 1019.1 0.0
22/09:00pm 12.2 10.4 7.9 75 2.1 NNW 7 9 4 5 1018.5 1018.4 0.0
22/08:30pm 13.9 11.7 7.7 66 3.1 W 9 13 5 7 1018.2 1018.1 0.0
22/08:00pm 14.4 11.9 8.1 66 3.1 W 11 13 6 7 1018.0 1017.9 0.0
22/07:30pm 14.3 11.4 8.0 66 3.1 NW 13 17 7 9 1017.5 1017.4 0.0
22/07:00pm 15.0 12.4 7.8 62 3.6 NW 11 15 6 8 1017.0 1016.9 0.0
22/06:30pm 15.9 13.7 7.9 59 4.0 W 9 15 5 8 1016.5 1016.4 0.0
22/06:00pm 15.5 12.8 7.3 58 4.1 WNW 11 15 6 8 1016.3 1016.2 0.0
22/05:30pm 16.0 13.2 7.0 55 4.4 WNW 11 13 6 7 1015.9 1015.8 0.0
22/05:00pm 16.9 14.6 7.3 53 4.8 W 9 13 5 7 1015.5 1015.4 0.0
22/04:30pm 18.6 16.2 6.8 46 5.9 W 9 13 5 7 1015.2 1015.1 0.0
22/04:00pm 19.7 16.5 6.8 43 6.5 W 13 20 7 11 1014.8 1014.7 0.0
22/03:30pm 20.2 16.2 6.5 41 6.9 W 17 24 9 13 1014.3 1014.2 0.0
22/03:00pm 20.6 16.8 7.6 43 6.7 WSW 17 28 9 15 1014.1 1014.0 0.0
22/02:30pm 20.6 15.9 6.2 39 7.2 WSW 20 33 11 18 1014.2 1014.1 0.0
22/02:00pm 20.3 16.6 6.3 40 7.0 W 15 35 8 19 1014.0 1013.9 0.0
22/01:30pm 20.2 15.9 7.2 43 6.6 WSW 19 30 10 16 1014.4 1014.3 0.0
22/01:00pm 18.9 14.1 5.4 41 6.6 WSW 20 33 11 18 1014.4 1014.3 0.0
22/12:30pm 18.5 15.6 6.7 46 5.9 WSW 11 19 6 10 1014.9 1014.8 0.0
22/12:00pm 18.4 15.4 7.5 49 5.5 WSW 13 24 7 13 1015.2 1015.1 0.0
22/11:30am 18.1 14.8 6.6 47 5.7 W 13 20 7 11 1015.7 1015.6 0.0
22/11:00am 17.8 13.7 6.3 47 5.7 WNW 17 26 9 14 1016.2 1016.1 0.0
22/10:30am 18.2 13.4 7.3 49 5.5 WNW 22 35 12 19 1016.6 1016.5 0.0
22/10:00am 17.5 13.3 7.5 52 5.0 WNW 19 32 10 17 1016.7 1016.6 0.0
22/09:30am 17.2 13.0 8.4 56 4.5 WNW 20 30 11 16 1016.6 1016.5 0.0
22/09:00am 16.4 11.5 8.4 59 4.1 WNW 24 39 13 21 1016.5 1016.4 11.6
22/08:30am 15.6 10.9 9.1 65 3.3 WNW 24 39 13 21 1016.3 1016.2 11.6
22/08:00am 15.1 12.9 10.9 76 2.2 NW 13 19 7 10 1016.0 1015.9 11.6
22/07:30am 14.4 11.9 11.2 81 1.7 NNW 15 19 8 10 1015.6 1015.5 11.6
22/07:00am 12.2 10.8 10.9 92 0.7 WNW 9 13 5 7 1015.4 1015.3 11.6
22/06:30am 10.7 9.3 9.6 93 0.6 NNW 7 11 4 6 1014.8 1014.7 11.6
22/06:00am 10.9 10.9 9.7 92 0.6 CALM 0 0 0 0 1014.9 1014.8 11.6
22/05:30am 11.6 10.7 10.5 93 0.6 WSW 6 7 3 4 1015.1 1015.0 11.6
22/05:00am 12.4 11.7 11.3 93 0.6 WNW 6 9 3 5 1015.0 1014.9 11.6
22/04:30am 12.5 11.5 11.1 91 0.7 WSW 7 9 4 5 1014.9 1014.8 11.6
22/04:00am 13.2 12.6 11.8 91 0.7 WNW 6 9 3 5 1014.7 1014.6 11.6
22/03:30am 13.7 12.7 12.3 91 0.8 WNW 9 15 5 8 1014.8 1014.7 11.6
22/03:00am 14.0 13.6 12.9 93 0.6 WNW 7 11 4 6 1014.8 1014.7 11.6
22/02:30am 14.0 13.7 12.6 91 0.8 N 6 9 3 5 1015.0 1014.9 11.6
22/02:00am 14.9 14.7 13.6 92 0.7 WNW 7 9 4 5 1015.2 1015.1 11.6
22/01:30am 15.2 15.1 13.9 92 0.7 W 7 11 4 6 1015.4 1015.3 11.6
22/01:00am 15.2 15.2 14.1 93 0.6 W 7 9 4 5 1015.9 1015.8 11.4
22/12:30am 15.0 14.5 13.9 93 0.6 NW 9 13 5 7 1016.0 1015.9 11.4
22/12:00am 14.9 14.3 13.6 92 0.7 NNW 9 11 5 6 1016.2 1016.1 11.4
 
Date/Time
EST
Temp
°C
App
Temp
°C
Dew
Point
Rel
Hum
%
Delta-T
°C
Wind Press
QNH
hPa
Press
MSL
hPa
Rain
since 9 am
mm
Dir
 
Spd
km/h
Gust
km/h
Spd
kts
Gust
kts
21/11:30pm 15.5 14.8 14.4 93 0.6 NW 11 13 6 7 1016.5 1016.4 11.4
21/11:00pm 15.7 16.0 14.6 93 0.6 WNW 6 9 3 5 1016.9 1016.8 11.4
21/10:30pm 15.6 15.7 14.5 93 0.6 NW 7 9 4 5 1017.0 1016.9 11.4
21/10:00pm 15.4 16.8 14.3 93 0.6 CALM 0 0 0 0 1017.4 1017.3 11.4
21/09:30pm 15.7 16.4 14.6 93 0.6 W 4 6 2 3 1017.5 1017.4 11.4

Other Formats:

Comma delimited format used in spreadsheet applications
http://www.bom.gov.au/fwo/IDN60801/IDN60801.94573.axf

JavaScript Object Notation format (JSON) in row-major order
http://www.bom.gov.au/fwo/IDN60801/IDN60801.94573.json